sensor_id;sensor_type;location;lat;lon;timestamp;pressure;altitude;pressure_sealevel;temperature;humidity
11329;BME280;5719;42.714;23.732;2023-01-26T00:00:03;94926.13;;;-0.09;100.00
11329;BME280;5719;42.714;23.732;2023-01-26T00:02:30;94908.75;;;-0.26;100.00
11329;BME280;5719;42.714;23.732;2023-01-26T00:04:57;94884.47;;;-0.37;100.00
11329;BME280;5719;42.714;23.732;2023-01-26T00:07:24;94909.63;;;-0.28;100.00
11329;BME280;5719;42.714;23.732;2023-01-26T00:09:51;94906.38;;;-0.33;100.00
11329;BME280;5719;42.714;23.732;2023-01-26T00:12:19;94898.13;;;-0.43;100.00
11329;BME280;5719;42.714;23.732;2023-01-26T00:14:46;94904.03;;;-0.41;100.00
11329;BME280;5719;42.714;23.732;2023-01-26T00:17:18;94904.03;;;-0.41;100.00
11329;BME280;5719;42.714;23.732;2023-01-26T00:19:54;94904.28;;;-0.53;100.00
11329;BME280;5719;42.714;23.732;2023-01-26T00:22:23;94921.91;;;-0.45;100.00
11329;BME280;5719;42.714;23.732;2023-01-26T00:24:50;94926.13;;;-0.44;100.00
11329;BME280;5719;42.714;23.732;2023-01-26T00:27:16;94918.84;;;-0.60;100.00
11329;BME280;5719;42.714;23.732;2023-01-26T00:29:45;94903.78;;;-0.67;100.00
11329;BME280;5719;42.714;23.732;2023-01-26T00:32:11;94916.47;;;-0.67;100.00
11329;BME280;5719;42.714;23.732;2023-01-26T00:34:38;94915.53;;;-0.63;100.00
11329;BME280;5719;42.714;23.732;2023-01-26T00:37:05;94910.38;;;-0.60;100.00
11329;BME280;5719;42.714;23.732;2023-01-26T00:39:32;94887.78;;;-0.72;100.00
11329;BME280;5719;42.714;23.732;2023-01-26T00:41:59;94898.63;;;-0.64;100.00
11329;BME280;5719;42.714;23.732;2023-01-26T00:44:34;94895.94;;;-0.58;100.00
11329;BME280;5719;42.714;23.732;2023-01-26T00:47:03;94886.78;;;-0.65;100.00
11329;BME280;5719;42.714;23.732;2023-01-26T00:49:30;94886.66;;;-0.59;100.00
11329;BME280;5719;42.714;23.732;2023-01-26T00:51:57;94869.16;;;-0.70;100.00
11329;BME280;5719;42.714;23.732;2023-01-26T00:54:23;94879.91;;;-0.60;100.00
11329;BME280;5719;42.714;23.732;2023-01-26T00:56:50;94880.91;;;-0.66;100.00
11329;BME280;5719;42.714;23.732;2023-01-26T00:59:17;94877.56;;;-0.69;100.00
11329;BME280;5719;42.714;23.732;2023-01-26T01:01:44;94867.41;;;-0.68;100.00
11329;BME280;5719;42.714;23.732;2023-01-26T01:04:12;94874.84;;;-0.62;100.00
11329;BME280;5719;42.714;23.732;2023-01-26T01:06:39;94873.16;;;-0.61;100.00
11329;BME280;5719;42.714;23.732;2023-01-26T01:09:06;94859.50;;;-0.56;100.00
11329;BME280;5719;42.714;23.732;2023-01-26T01:11:33;94840.91;;;-0.56;100.00
11329;BME280;5719;42.714;23.732;2023-01-26T01:14:00;94849.03;;;-0.43;100.00
11329;BME280;5719;42.714;23.732;2023-01-26T01:16:27;94843.84;;;-0.39;100.00
11329;BME280;5719;42.714;23.732;2023-01-26T01:18:55;94844.88;;;-0.46;100.00
11329;BME280;5719;42.714;23.732;2023-01-26T01:21:23;94849.03;;;-0.43;100.00
11329;BME280;5719;42.714;23.732;2023-01-26T01:23:50;94845.63;;;-0.41;100.00
11329;BME280;5719;42.714;23.732;2023-01-26T01:26:17;94843.25;;;-0.48;100.00
11329;BME280;5719;42.714;23.732;2023-01-26T01:28:44;94834.06;;;-0.54;100.00
11329;BME280;5719;42.714;23.732;2023-01-26T01:31:13;94849.19;;;-0.48;100.00
11329;BME280;5719;42.714;23.732;2023-01-26T01:33:40;94835.00;;;-0.58;100.00
11329;BME280;5719;42.714;23.732;2023-01-26T01:36:09;94848.28;;;-0.47;100.00
11329;BME280;5719;42.714;23.732;2023-01-26T01:38:38;94845.56;;;-0.39;100.00
11329;BME280;5719;42.714;23.732;2023-01-26T01:41:05;94840.47;;;-0.39;100.00
11329;BME280;5719;42.714;23.732;2023-01-26T01:43:32;94847.22;;;-0.38;100.00
11329;BME280;5719;42.714;23.732;2023-01-26T01:46:00;94825.59;;;-0.53;100.00
11329;BME280;5719;42.714;23.732;2023-01-26T01:48:33;94860.84;;;-0.41;100.00
11329;BME280;5719;42.714;23.732;2023-01-26T01:51:03;94846.47;;;-0.42;100.00
11329;BME280;5719;42.714;23.732;2023-01-26T01:53:32;94849.25;;;-0.51;100.00
11329;BME280;5719;42.714;23.732;2023-01-26T01:56:05;94844.22;;;-0.54;100.00
11329;BME280;5719;42.714;23.732;2023-01-26T01:58:36;94847.47;;;-0.47;100.00
11329;BME280;5719;42.714;23.732;2023-01-26T02:01:04;94844.97;;;-0.49;100.00
11329;BME280;5719;42.714;23.732;2023-01-26T02:03:32;94839.13;;;-0.54;100.00
11329;BME280;5719;42.714;23.732;2023-01-26T02:06:04;94834.88;;;-0.52;100.00
11329;BME280;5719;42.714;23.732;2023-01-26T02:08:36;94835.63;;;-0.48;100.00
11329;BME280;5719;42.714;23.732;2023-01-26T02:11:08;94832.19;;;-0.46;100.00
11329;BME280;5719;42.714;23.732;2023-01-26T02:13:36;94826.91;;;-0.38;100.00
11329;BME280;5719;42.714;23.732;2023-01-26T02:16:04;94827.69;;;-0.36;100.00
11329;BME280;5719;42.714;23.732;2023-01-26T02:18:31;94824.28;;;-0.34;100.00
11329;BME280;5719;42.714;23.732;2023-01-26T02:21:00;94825.94;;;-0.33;100.00
11329;BME280;5719;42.714;23.732;2023-01-26T02:23:36;94817.75;;;-0.44;100.00
11329;BME280;5719;42.714;23.732;2023-01-26T02:26:10;94809.03;;;-0.34;100.00
11329;BME280;5719;42.714;23.732;2023-01-26T02:28:38;94811.81;;;-0.11;100.00
11329;BME280;5719;42.714;23.732;2023-01-26T02:31:06;94797.28;;;-0.06;100.00
11329;BME280;5719;42.714;23.732;2023-01-26T02:33:35;94795.75;;;-0.11;100.00
11329;BME280;5719;42.714;23.732;2023-01-26T02:36:02;94788.34;;;-0.19;100.00
11329;BME280;5719;42.714;23.732;2023-01-26T02:38:36;94778.94;;;-0.15;100.00
11329;BME280;5719;42.714;23.732;2023-01-26T02:41:06;94776.50;;;-0.20;100.00
11329;BME280;5719;42.714;23.732;2023-01-26T02:43:35;94778.78;;;-0.11;100.00
11329;BME280;5719;42.714;23.732;2023-01-26T02:46:01;94777.06;;;-0.10;100.00
11329;BME280;5719;42.714;23.732;2023-01-26T02:48:28;94771.91;;;-0.07;100.00
11329;BME280;5719;42.714;23.732;2023-01-26T02:51:12;94777.13;;;-0.12;100.00
11329;BME280;5719;42.714;23.732;2023-01-26T02:53:38;94775.47;;;-0.13;100.00
11329;BME280;5719;42.714;23.732;2023-01-26T02:56:06;94769.50;;;-0.12;100.00
11329;BME280;5719;42.714;23.732;2023-01-26T02:58:32;94756.91;;;-0.15;100.00
11329;BME280;5719;42.714;23.732;2023-01-26T03:01:00;94759.97;;;-0.04;100.00
11329;BME280;5719;42.714;23.732;2023-01-26T03:03:28;94747.19;;;-0.01;100.00
11329;BME280;5719;42.714;23.732;2023-01-26T03:06:09;94765.66;;;0.05;100.00
11329;BME280;5719;42.714;23.732;2023-01-26T03:08:37;94762.19;;;0.09;100.00
11329;BME280;5719;42.714;23.732;2023-01-26T03:11:06;94756.84;;;0.18;100.00
11329;BME280;5719;42.714;23.732;2023-01-26T03:13:33;94739.22;;;0.12;100.00
11329;BME280;5719;42.714;23.732;2023-01-26T03:16:05;94736.06;;;0.04;98.94
11329;BME280;5719;42.714;23.732;2023-01-26T03:18:33;94745.25;;;0.08;99.47
11329;BME280;5719;42.714;23.732;2023-01-26T03:21:17;94735.47;;;0.25;100.00
11329;BME280;5719;42.714;23.732;2023-01-26T03:24:02;94740.59;;;0.23;99.17
11329;BME280;5719;42.714;23.732;2023-01-26T03:26:46;94731.97;;;0.29;99.78
11329;BME280;5719;42.714;23.732;2023-01-26T03:29:31;94725.16;;;0.29;99.64
11329;BME280;5719;42.714;23.732;2023-01-26T03:31:59;94719.84;;;0.37;99.60
11329;BME280;5719;42.714;23.732;2023-01-26T03:34:26;94712.16;;;0.40;98.97
11329;BME280;5719;42.714;23.732;2023-01-26T03:36:54;94714.06;;;0.32;97.86
11329;BME280;5719;42.714;23.732;2023-01-26T03:39:21;94703.91;;;0.32;98.55
11329;BME280;5719;42.714;23.732;2023-01-26T03:42:05;94703.09;;;0.30;97.25
11329;BME280;5719;42.714;23.732;2023-01-26T03:44:50;94710.56;;;0.36;98.02
11329;BME280;5719;42.714;23.732;2023-01-26T03:47:36;94699.13;;;0.21;98.61
11329;BME280;5719;42.714;23.732;2023-01-26T03:50:21;94690.84;;;0.15;98.60
11329;BME280;5719;42.714;23.732;2023-01-26T03:53:12;94690.19;;;0.08;98.99
11329;BME280;5719;42.714;23.732;2023-01-26T03:55:56;94694.56;;;0.03;100.00
11329;BME280;5719;42.714;23.732;2023-01-26T03:58:42;94682.03;;;-0.03;99.93
11329;BME280;5719;42.714;23.732;2023-01-26T04:01:10;94688.34;;;0.13;100.00
11329;BME280;5719;42.714;23.732;2023-01-26T04:03:46;94691.72;;;0.14;99.51
11329;BME280;5719;42.714;23.732;2023-01-26T04:06:32;94697.91;;;0.05;100.00
11329;BME280;5719;42.714;23.732;2023-01-26T04:09:16;94697.06;;;0.05;100.00
11329;BME280;5719;42.714;23.732;2023-01-26T04:11:43;94686.94;;;0.03;98.97
11329;BME280;5719;42.714;23.732;2023-01-26T04:14:11;94677.78;;;-0.03;99.28
11329;BME280;5719;42.714;23.732;2023-01-26T04:16:55;94670.59;;;0.12;99.26
11329;BME280;5719;42.714;23.732;2023-01-26T04:19:41;94665.50;;;0.12;98.85
11329;BME280;5719;42.714;23.732;2023-01-26T04:22:25;94663.88;;;0.11;98.96
11329;BME280;5719;42.714;23.732;2023-01-26T04:24:52;94659.00;;;0.03;98.76
11329;BME280;5719;42.714;23.732;2023-01-26T04:27:19;94649.78;;;-0.01;99.62
11329;BME280;5719;42.714;23.732;2023-01-26T04:29:46;94635.19;;;0.06;100.00
11329;BME280;5719;42.714;23.732;2023-01-26T04:32:13;94634.44;;;0.04;99.80
11329;BME280;5719;42.714;23.732;2023-01-26T04:34:41;94638.06;;;-0.05;99.42
11329;BME280;5719;42.714;23.732;2023-01-26T04:37:08;94632.41;;;-0.15;100.00
11329;BME280;5719;42.714;23.732;2023-01-26T04:39:35;94633.38;;;-0.19;100.00
11329;BME280;5719;42.714;23.732;2023-01-26T04:42:02;94640.84;;;-0.14;100.00
11329;BME280;5719;42.714;23.732;2023-01-26T04:44:29;94646.41;;;-0.31;100.00
11329;BME280;5719;42.714;23.732;2023-01-26T04:46:56;94632.09;;;-0.33;100.00
11329;BME280;5719;42.714;23.732;2023-01-26T04:49:23;94638.38;;;-0.16;100.00
11329;BME280;5719;42.714;23.732;2023-01-26T04:51:51;94582.50;;;-0.46;100.00
11329;BME280;5719;42.714;23.732;2023-01-26T04:54:18;94644.72;;;-0.01;100.00
11329;BME280;5719;42.714;23.732;2023-01-26T04:56:45;94637.00;;;0.02;98.69
11329;BME280;5719;42.714;23.732;2023-01-26T04:59:12;94641.97;;;0.07;98.52
11329;BME280;5719;42.714;23.732;2023-01-26T05:01:40;94653.03;;;0.04;98.08
11329;BME280;5719;42.714;23.732;2023-01-26T05:04:07;94633.44;;;0.08;98.68
11329;BME280;5719;42.714;23.732;2023-01-26T05:06:35;94618.16;;;0.09;97.56
11329;BME280;5719;42.714;23.732;2023-01-26T05:09:05;94606.38;;;0.07;97.83
11329;BME280;5719;42.714;23.732;2023-01-26T05:11:32;94629.66;;;0.21;97.60
11329;BME280;5719;42.714;23.732;2023-01-26T05:13:59;94624.50;;;0.24;97.90
11329;BME280;5719;42.714;23.732;2023-01-26T05:16:26;94625.25;;;0.26;97.54
11329;BME280;5719;42.714;23.732;2023-01-26T05:18:53;94611.25;;;0.13;97.22
11329;BME280;5719;42.714;23.732;2023-01-26T05:21:20;94623.66;;;0.23;96.84
11329;BME280;5719;42.714;23.732;2023-01-26T05:23:49;94631.50;;;0.16;96.95
11329;BME280;5719;42.714;23.732;2023-01-26T05:26:17;94624.94;;;0.09;96.87
11329;BME280;5719;42.714;23.732;2023-01-26T05:28:44;94632.84;;;-0.01;96.91
11329;BME280;5719;42.714;23.732;2023-01-26T05:31:11;94541.84;;;-0.45;97.96
11329;BME280;5719;42.714;23.732;2023-01-26T05:33:37;94621.66;;;0.05;97.39
11329;BME280;5719;42.714;23.732;2023-01-26T05:36:06;94617.31;;;0.09;97.94
11329;BME280;5719;42.714;23.732;2023-01-26T05:38:33;94589.91;;;-0.10;98.16
11329;BME280;5719;42.714;23.732;2023-01-26T05:41:00;94611.56;;;0.04;98.32
11329;BME280;5719;42.714;23.732;2023-01-26T05:43:28;94622.72;;;-0.02;98.58
11329;BME280;5719;42.714;23.732;2023-01-26T05:45:56;94626.88;;;0.00;99.09
11329;BME280;5719;42.714;23.732;2023-01-26T05:48:22;94612.78;;;-0.10;99.43
11329;BME280;5719;42.714;23.732;2023-01-26T05:50:49;94612.00;;;-0.12;100.00
11329;BME280;5719;42.714;23.732;2023-01-26T05:53:16;94613.00;;;-0.17;100.00
11329;BME280;5719;42.714;23.732;2023-01-26T05:55:44;94602.94;;;-0.22;100.00
11329;BME280;5719;42.714;23.732;2023-01-26T05:58:10;94618.69;;;-0.09;100.00
11329;BME280;5719;42.714;23.732;2023-01-26T06:00:39;94605.63;;;0.03;100.00
11329;BME280;5719;42.714;23.732;2023-01-26T06:03:06;94607.13;;;0.10;100.00
11329;BME280;5719;42.714;23.732;2023-01-26T06:05:32;94615.28;;;0.20;99.98
11329;BME280;5719;42.714;23.732;2023-01-26T06:07:59;94611.53;;;0.31;99.31
11329;BME280;5719;42.714;23.732;2023-01-26T06:10:26;94619.88;;;0.36;98.94
11329;BME280;5719;42.714;23.732;2023-01-26T06:12:53;94612.09;;;0.41;98.18
11329;BME280;5719;42.714;23.732;2023-01-26T06:15:20;94615.44;;;0.43;98.77
11329;BME280;5719;42.714;23.732;2023-01-26T06:17:48;94606.41;;;0.33;96.95
11329;BME280;5719;42.714;23.732;2023-01-26T06:20:15;94600.66;;;0.28;97.96
11329;BME280;5719;42.714;23.732;2023-01-26T06:22:42;94621.66;;;0.33;97.90
11329;BME280;5719;42.714;23.732;2023-01-26T06:25:09;94606.25;;;0.37;97.48
11329;BME280;5719;42.714;23.732;2023-01-26T06:27:36;94612.28;;;0.35;97.67
11329;BME280;5719;42.714;23.732;2023-01-26T06:30:07;94607.69;;;0.46;97.77
11329;BME280;5719;42.714;23.732;2023-01-26T06:32:34;94602.38;;;0.54;98.31
11329;BME280;5719;42.714;23.732;2023-01-26T06:35:04;94588.03;;;0.51;100.00
11329;BME280;5719;42.714;23.732;2023-01-26T06:37:33;94574.53;;;0.49;98.42
11329;BME280;5719;42.714;23.732;2023-01-26T06:40:00;94581.09;;;0.56;98.46
11329;BME280;5719;42.714;23.732;2023-01-26T06:42:27;94570.81;;;0.59;98.77
11329;BME280;5719;42.714;23.732;2023-01-26T06:44:54;94584.63;;;0.78;98.14
11329;BME280;5719;42.714;23.732;2023-01-26T06:47:23;94579.41;;;0.81;98.23
11329;BME280;5719;42.714;23.732;2023-01-26T06:49:50;94579.16;;;0.89;98.99
11329;BME280;5719;42.714;23.732;2023-01-26T06:52:30;94566.44;;;0.89;98.26
11329;BME280;5719;42.714;23.732;2023-01-26T06:54:58;94566.84;;;0.77;97.45
11329;BME280;5719;42.714;23.732;2023-01-26T06:57:25;94570.28;;;0.76;99.58
11329;BME280;5719;42.714;23.732;2023-01-26T06:59:52;94572.22;;;0.69;99.99
11329;BME280;5719;42.714;23.732;2023-01-26T07:02:21;94578.09;;;0.70;99.33
11329;BME280;5719;42.714;23.732;2023-01-26T07:04:49;94573.91;;;0.69;100.00
11329;BME280;5719;42.714;23.732;2023-01-26T07:07:16;94569.66;;;0.69;100.00
11329;BME280;5719;42.714;23.732;2023-01-26T07:09:44;94568.28;;;0.84;100.00
11329;BME280;5719;42.714;23.732;2023-01-26T07:12:11;94571.25;;;0.98;100.00
11329;BME280;5719;42.714;23.732;2023-01-26T07:14:38;94572.63;;;1.07;99.46
11329;BME280;5719;42.714;23.732;2023-01-26T07:17:05;94554.34;;;0.95;99.40
11329;BME280;5719;42.714;23.732;2023-01-26T07:19:33;94556.22;;;0.90;100.00
11329;BME280;5719;42.714;23.732;2023-01-26T07:22:00;94557.59;;;0.99;99.48
11329;BME280;5719;42.714;23.732;2023-01-26T07:24:27;94551.41;;;1.06;98.30
11329;BME280;5719;42.714;23.732;2023-01-26T07:26:56;94548.50;;;1.17;99.18
11329;BME280;5719;42.714;23.732;2023-01-26T07:29:23;94555.69;;;1.30;98.01
11329;BME280;5719;42.714;23.732;2023-01-26T07:31:50;94556.34;;;1.35;97.30
11329;BME280;5719;42.714;23.732;2023-01-26T07:34:17;94542.34;;;1.24;98.25
11329;BME280;5719;42.714;23.732;2023-01-26T07:36:44;94552.53;;;1.24;98.96
11329;BME280;5719;42.714;23.732;2023-01-26T07:39:11;94544.09;;;1.22;98.83
11329;BME280;5719;42.714;23.732;2023-01-26T07:41:37;94548.31;;;1.23;100.00
11329;BME280;5719;42.714;23.732;2023-01-26T07:44:09;94551.19;;;1.37;100.00
11329;BME280;5719;42.714;23.732;2023-01-26T07:46:36;94543.72;;;1.32;99.27
11329;BME280;5719;42.714;23.732;2023-01-26T07:49:04;94531.78;;;1.10;99.04
11329;BME280;5719;42.714;23.732;2023-01-26T07:51:31;94535.06;;;1.13;100.00
11329;BME280;5719;42.714;23.732;2023-01-26T07:53:58;94537.91;;;1.29;100.00
11329;BME280;5719;42.714;23.732;2023-01-26T07:56:25;94528.28;;;1.37;100.00
11329;BME280;5719;42.714;23.732;2023-01-26T07:58:53;94531.13;;;1.53;100.00
11329;BME280;5719;42.714;23.732;2023-01-26T08:01:21;94532.47;;;1.61;99.86
11329;BME280;5719;42.714;23.732;2023-01-26T08:03:49;94531.59;;;1.62;99.21
11329;BME280;5719;42.714;23.732;2023-01-26T08:06:18;94537.81;;;1.78;98.35
11329;BME280;5719;42.714;23.732;2023-01-26T08:08:46;94530.56;;;1.89;97.37
11329;BME280;5719;42.714;23.732;2023-01-26T08:11:16;94532.34;;;1.87;96.18
11329;BME280;5719;42.714;23.732;2023-01-26T08:13:43;94535.19;;;2.02;95.68
11329;BME280;5719;42.714;23.732;2023-01-26T08:16:11;94521.81;;;2.18;95.11
11329;BME280;5719;42.714;23.732;2023-01-26T08:18:40;94523.03;;;2.30;94.00
11329;BME280;5719;42.714;23.732;2023-01-26T08:21:07;94513.91;;;2.46;94.23
11329;BME280;5719;42.714;23.732;2023-01-26T08:23:37;94506.91;;;2.51;94.08
11329;BME280;5719;42.714;23.732;2023-01-26T08:26:05;94502.50;;;2.55;93.68
11329;BME280;5719;42.714;23.732;2023-01-26T08:28:33;94510.19;;;2.53;92.74
11329;BME280;5719;42.714;23.732;2023-01-26T08:31:03;94514.66;;;2.48;93.20
11329;BME280;5719;42.714;23.732;2023-01-26T08:33:30;94517.84;;;2.53;92.12
11329;BME280;5719;42.714;23.732;2023-01-26T08:36:01;94521.28;;;2.52;92.65
11329;BME280;5719;42.714;23.732;2023-01-26T08:38:29;94518.81;;;2.51;91.95
11329;BME280;5719;42.714;23.732;2023-01-26T09:41:03;94462.78;;;2.88;91.27
11329;BME280;5719;42.714;23.732;2023-01-26T09:43:36;94461.16;;;2.87;90.96
11329;BME280;5719;42.714;23.732;2023-01-26T09:46:14;94466.16;;;2.88;90.72
11329;BME280;5719;42.714;23.732;2023-01-26T09:48:48;94457.50;;;2.92;90.60
11329;BME280;5719;42.714;23.732;2023-01-26T09:51:23;94444.59;;;2.95;90.47
11329;BME280;5719;42.714;23.732;2023-01-26T09:53:56;94441.00;;;3.00;90.05
11329;BME280;5719;42.714;23.732;2023-01-26T09:56:29;94430.94;;;2.96;90.34
11329;BME280;5719;42.714;23.732;2023-01-26T09:59:01;94440.63;;;3.09;88.95
11329;BME280;5719;42.714;23.732;2023-01-26T10:01:32;94432.88;;;3.10;89.27
11329;BME280;5719;42.714;23.732;2023-01-26T10:04:06;94430.00;;;3.18;88.58
11329;BME280;5719;42.714;23.732;2023-01-26T10:06:37;94424.69;;;3.22;88.05
11329;BME280;5719;42.714;23.732;2023-01-26T10:09:14;94431.13;;;3.31;88.03
11329;BME280;5719;42.714;23.732;2023-01-26T10:11:45;94437.63;;;3.38;88.14
11329;BME280;5719;42.714;23.732;2023-01-26T10:14:18;94435.13;;;3.36;88.36
11329;BME280;5719;42.714;23.732;2023-01-26T10:16:48;94438.66;;;3.34;89.45
11329;BME280;5719;42.714;23.732;2023-01-26T10:19:24;94425.22;;;3.29;89.77
11329;BME280;5719;42.714;23.732;2023-01-26T10:22:01;94421.31;;;3.40;89.35
11329;BME280;5719;42.714;23.732;2023-01-26T10:24:32;94422.63;;;3.49;88.67
11329;BME280;5719;42.714;23.732;2023-01-26T10:27:00;94412.13;;;3.55;88.76
11329;BME280;5719;42.714;23.732;2023-01-26T10:29:27;94400.09;;;3.57;87.70
11329;BME280;5719;42.714;23.732;2023-01-26T10:31:54;94397.53;;;3.57;86.68
11329;BME280;5719;42.714;23.732;2023-01-26T10:34:22;94382.56;;;3.50;87.91
11329;BME280;5719;42.714;23.732;2023-01-26T10:36:54;94375.19;;;3.25;90.01
11329;BME280;5719;42.714;23.732;2023-01-26T10:39:22;94382.63;;;3.48;90.22
11329;BME280;5719;42.714;23.732;2023-01-26T10:41:56;94378.59;;;3.61;90.06
11329;BME280;5719;42.714;23.732;2023-01-26T10:44:31;94374.78;;;3.70;90.18
11329;BME280;5719;42.714;23.732;2023-01-26T10:47:04;94368.34;;;3.80;89.38
11329;BME280;5719;42.714;23.732;2023-01-26T10:49:31;94352.09;;;3.81;88.42
11329;BME280;5719;42.714;23.732;2023-01-26T10:52:06;94309.31;;;3.67;86.94
11329;BME280;5719;42.714;23.732;2023-01-26T10:54:33;94347.53;;;4.05;87.14
11329;BME280;5719;42.714;23.732;2023-01-26T11:04:01;94319.84;;;3.95;86.53
11329;BME280;5719;42.714;23.732;2023-01-26T11:06:30;94306.03;;;3.82;87.01
11329;BME280;5719;42.714;23.732;2023-01-26T11:09:09;94315.31;;;3.66;87.83
11329;BME280;5719;42.714;23.732;2023-01-26T11:11:36;94290.59;;;3.67;88.14
11329;BME280;5719;42.714;23.732;2023-01-26T11:14:10;94300.88;;;3.65;87.06
11329;BME280;5719;42.714;23.732;2023-01-26T11:16:39;94294.13;;;3.64;87.63
11329;BME280;5719;42.714;23.732;2023-01-26T11:19:13;94287.81;;;3.71;88.68
11329;BME280;5719;42.714;23.732;2023-01-26T11:21:46;94281.03;;;3.70;87.46
11329;BME280;5719;42.714;23.732;2023-01-26T11:24:17;94272.59;;;3.68;86.38
11329;BME280;5719;42.714;23.732;2023-01-26T11:32:43;94258.47;;;3.44;86.11
11329;BME280;5719;42.714;23.732;2023-01-26T11:35:23;94241.09;;;3.51;86.19
11329;BME280;5719;42.714;23.732;2023-01-26T11:37:56;94243.59;;;3.69;86.33
11329;BME280;5719;42.714;23.732;2023-01-26T11:40:31;94230.50;;;3.75;85.47
11329;BME280;5719;42.714;23.732;2023-01-26T11:43:29;94232.53;;;3.52;86.08
11329;BME280;5719;42.714;23.732;2023-01-26T11:46:10;94236.00;;;3.51;85.13
11329;BME280;5719;42.714;23.732;2023-01-26T11:48:50;94236.97;;;3.65;84.28
11329;BME280;5719;42.714;23.732;2023-01-26T11:51:30;94236.03;;;3.68;83.72
11329;BME280;5719;42.714;23.732;2023-01-26T11:54:11;94234.56;;;3.79;83.09
11329;BME280;5719;42.714;23.732;2023-01-26T11:56:47;94237.56;;;3.87;81.54
11329;BME280;5719;42.714;23.732;2023-01-26T11:59:17;94233.97;;;3.91;81.58
11329;BME280;5719;42.714;23.732;2023-01-26T12:01:48;94208.78;;;3.84;81.02
11329;BME280;5719;42.714;23.732;2023-01-26T12:04:19;94215.31;;;3.89;82.44
11329;BME280;5719;42.714;23.732;2023-01-26T12:06:49;94224.03;;;3.85;83.03
11329;BME280;5719;42.714;23.732;2023-01-26T12:09:24;94221.41;;;3.87;82.31
11329;BME280;5719;42.714;23.732;2023-01-26T12:11:59;94218.31;;;3.80;82.63
11329;BME280;5719;42.714;23.732;2023-01-26T12:14:34;94213.81;;;3.85;83.68
11329;BME280;5719;42.714;23.732;2023-01-26T12:17:25;94217.28;;;3.84;85.23
11329;BME280;5719;42.714;23.732;2023-01-26T12:19:57;94222.06;;;3.90;84.79
11329;BME280;5719;42.714;23.732;2023-01-26T12:22:32;94222.47;;;3.49;82.65
11329;BME280;5719;42.714;23.732;2023-01-26T12:25:13;94214.28;;;3.42;85.01
11329;BME280;5719;42.714;23.732;2023-01-26T12:27:49;94208.34;;;3.59;85.30
11329;BME280;5719;42.714;23.732;2023-01-26T12:30:25;94204.69;;;3.64;86.20
11329;BME280;5719;42.714;23.732;2023-01-26T12:32:52;94196.59;;;3.72;85.62
11329;BME280;5719;42.714;23.732;2023-01-26T12:35:29;94196.41;;;3.59;86.77
11329;BME280;5719;42.714;23.732;2023-01-26T12:38:08;94192.63;;;3.66;86.42
11329;BME280;5719;42.714;23.732;2023-01-26T12:40:45;94193.75;;;3.61;85.14
11329;BME280;5719;42.714;23.732;2023-01-26T12:43:21;94177.59;;;3.60;84.43
11329;BME280;5719;42.714;23.732;2023-01-26T12:45:53;94191.41;;;3.73;83.25
11329;BME280;5719;42.714;23.732;2023-01-26T12:48:24;94190.44;;;3.76;83.01
11329;BME280;5719;42.714;23.732;2023-01-26T12:50:59;94169.63;;;3.66;83.99
11329;BME280;5719;42.714;23.732;2023-01-26T12:53:33;94185.84;;;3.82;85.47
11329;BME280;5719;42.714;23.732;2023-01-26T12:56:08;94182.84;;;3.57;85.74
11329;BME280;5719;42.714;23.732;2023-01-26T12:58:38;94172.63;;;3.57;86.02
11329;BME280;5719;42.714;23.732;2023-01-26T13:01:09;94168.28;;;3.59;86.37
11329;BME280;5719;42.714;23.732;2023-01-26T13:03:39;94161.88;;;3.51;86.31
11329;BME280;5719;42.714;23.732;2023-01-26T13:06:19;94153.34;;;3.34;86.73
11329;BME280;5719;42.714;23.732;2023-01-26T13:08:59;94169.88;;;3.27;87.24
11329;BME280;5719;42.714;23.732;2023-01-26T13:11:47;94147.94;;;3.23;88.10
11329;BME280;5719;42.714;23.732;2023-01-26T13:14:33;94151.84;;;3.13;88.53
11329;BME280;5719;42.714;23.732;2023-01-26T13:29:31;94164.69;;;3.12;87.01
11329;BME280;5719;42.714;23.732;2023-01-26T13:32:49;94155.56;;;2.89;88.62
11329;BME280;5719;42.714;23.732;2023-01-26T13:34:50;94139.00;;;2.62;88.74
11329;BME280;5719;42.714;23.732;2023-01-26T13:37:23;94117.94;;;2.39;90.49
11329;BME280;5719;42.714;23.732;2023-01-26T13:39:57;94137.50;;;2.39;93.22
11329;BME280;5719;42.714;23.732;2023-01-26T13:42:30;94133.78;;;2.46;91.88
11329;BME280;5719;42.714;23.732;2023-01-26T13:45:05;94127.34;;;2.56;91.97
11329;BME280;5719;42.714;23.732;2023-01-26T13:47:38;94129.00;;;2.57;90.62
11329;BME280;5719;42.714;23.732;2023-01-26T13:50:21;94115.97;;;2.63;89.53
11329;BME280;5719;42.714;23.732;2023-01-26T13:52:48;94121.91;;;2.45;90.04
11329;BME280;5719;42.714;23.732;2023-01-26T13:55:22;94106.22;;;2.35;90.09
11329;BME280;5719;42.714;23.732;2023-01-26T13:58:08;94117.13;;;2.39;89.51
11329;BME280;5719;42.714;23.732;2023-01-26T14:00:37;94107.19;;;2.33;90.24
11329;BME280;5719;42.714;23.732;2023-01-26T14:03:04;94116.78;;;2.28;91.19
11329;BME280;5719;42.714;23.732;2023-01-26T14:05:31;94092.41;;;2.04;92.62
11329;BME280;5719;42.714;23.732;2023-01-26T14:08:00;94097.91;;;2.13;92.13
11329;BME280;5719;42.714;23.732;2023-01-26T14:10:28;94104.31;;;2.22;92.75
11329;BME280;5719;42.714;23.732;2023-01-26T14:12:56;94098.44;;;2.20;93.27
11329;BME280;5719;42.714;23.732;2023-01-26T14:15:28;94097.28;;;2.08;94.19
11329;BME280;5719;42.714;23.732;2023-01-26T14:17:59;94092.19;;;2.08;94.79
11329;BME280;5719;42.714;23.732;2023-01-26T14:20:29;94098.72;;;2.14;93.28
11329;BME280;5719;42.714;23.732;2023-01-26T14:23:10;94089.28;;;2.16;93.45
11329;BME280;5719;42.714;23.732;2023-01-26T14:25:39;94095.22;;;2.16;93.78
11329;BME280;5719;42.714;23.732;2023-01-26T14:28:12;94073.84;;;2.19;93.71
11329;BME280;5719;42.714;23.732;2023-01-26T14:30:41;94077.38;;;2.16;93.79
11329;BME280;5719;42.714;23.732;2023-01-26T14:33:13;94076.94;;;2.25;94.03
11329;BME280;5719;42.714;23.732;2023-01-26T14:35:41;94074.94;;;2.32;94.65
11329;BME280;5719;42.714;23.732;2023-01-26T14:38:14;94071.81;;;2.44;95.26
11329;BME280;5719;42.714;23.732;2023-01-26T14:40:45;94063.78;;;2.16;96.21
11329;BME280;5719;42.714;23.732;2023-01-26T14:43:12;94065.56;;;2.32;96.05
11329;BME280;5719;42.714;23.732;2023-01-26T14:45:43;94069.13;;;2.47;95.39
11329;BME280;5719;42.714;23.732;2023-01-26T14:48:15;94064.41;;;2.57;94.20